Time;durP1;ratioP1;P1;durP2;ratioP2;P2;SDS_P1;SDS_P2;PMS_P1;PMS_P2;Temp;Humidity;BMP_temperature;BMP_pressure;BME280_temperature;BME280_humidity;BME280_pressure;Samples;Min_cycle;Max_cycle;Signal;HPM_P1;HPM_P2
2021/06/01 00:00:07;;;;;;;1.40;1.02;;;17.00;56.60;;;;;;5054786;28;20028;-75
2021/06/01 00:02:33;;;;;;;1.98;0.98;;;16.90;56.30;;;;;;5054033;28;20427;-75
2021/06/01 00:04:59;;;;;;;1.58;0.95;;;16.90;56.10;;;;;;5053895;28;20021;-75
2021/06/01 00:07:24;;;;;;;2.17;1.30;;;16.90;55.80;;;;;;5054314;28;20035;-75
2021/06/01 00:09:50;;;;;;;2.33;1.10;;;16.90;55.70;;;;;;5051809;28;20041;-75
2021/06/01 00:12:15;;;;;;;2.13;1.00;;;16.80;55.50;;;;;;5053461;28;20025;-75
2021/06/01 00:14:41;;;;;;;3.65;1.30;;;16.70;55.40;;;;;;5054281;28;20074;-75
2021/06/01 00:17:06;;;;;;;1.60;0.90;;;16.70;55.20;;;;;;5052982;28;20078;-75
2021/06/01 00:19:32;;;;;;;1.92;1.20;;;16.70;55.20;;;;;;5051254;28;20024;-75
2021/06/01 00:21:58;;;;;;;2.47;0.90;;;16.70;55.10;;;;;;5050450;28;20459;-75
2021/06/01 00:24:23;;;;;;;2.88;1.35;;;16.70;55.20;;;;;;5053310;28;20067;-74
2021/06/01 00:26:49;;;;;;;1.70;1.08;;;16.70;55.60;;;;;;5055623;28;20040;-75
2021/06/01 00:29:14;;;;;;;1.83;1.10;;;16.70;55.80;;;;;;5053872;28;20472;-75
2021/06/01 00:31:41;;;;;;;1.63;1.05;;;16.70;56.00;;;;;;5054690;28;20044;-75
2021/06/01 00:34:07;;;;;;;2.67;1.50;;;16.60;56.80;;;;;;5053197;28;20104;-75
2021/06/01 00:36:33;;;;;;;3.83;2.00;;;16.60;57.50;;;;;;5053060;28;20595;-75
2021/06/01 00:38:59;;;;;;;3.60;1.77;;;16.50;57.70;;;;;;5051992;28;20024;-75
2021/06/01 00:41:24;;;;;;;4.57;1.60;;;16.50;58.10;;;;;;5055183;28;20455;-74
2021/06/01 00:43:50;;;;;;;4.65;1.63;;;16.40;58.70;;;;;;5055649;28;20036;-75
2021/06/01 00:46:16;;;;;;;3.67;1.75;;;16.30;59.00;;;;;;5053772;28;20029;-75
2021/06/01 00:48:41;;;;;;;2.53;1.52;;;16.30;59.40;;;;;;5054743;28;20028;-75
2021/06/01 00:51:07;;;;;;;3.60;1.88;;;16.30;59.50;;;;;;5052896;28;20028;-75
2021/06/01 00:53:33;;;;;;;3.30;1.75;;;16.20;59.50;;;;;;5052985;28;20032;-75
2021/06/01 00:55:59;;;;;;;4.65;1.85;;;16.20;59.90;;;;;;5051817;28;20146;-75
2021/06/01 00:58:25;;;;;;;2.45;1.55;;;16.10;60.90;;;;;;5055300;28;20032;-75
2021/06/01 01:03:33;;;;;;;2.53;1.30;;;16.00;60.40;;;;;;5054784;28;20362;-75
2021/06/01 01:06:08;;;;;;;3.28;1.42;;;16.00;60.20;;;;;;5067146;28;20469;-75
2021/06/01 01:08:51;;;;;;;1.98;1.20;;;16.00;60.10;;;;;;5068718;28;20021;-75
2021/06/01 01:11:31;;;;;;;2.53;1.20;;;15.90;60.00;;;;;;5053362;28;20017;-74
2021/06/01 01:14:17;;;;;;;2.72;1.10;;;15.90;60.00;;;;;;5052157;28;20017;-75
2021/06/01 01:16:50;;;;;;;1.67;0.85;;;15.90;59.90;;;;;;5053224;28;20112;-75
2021/06/01 01:19:31;;;;;;;2.10;1.20;;;15.90;59.80;;;;;;5052837;28;20072;-75
2021/06/01 01:21:56;;;;;;;1.70;1.10;;;15.80;59.80;;;;;;5051870;28;20079;-75
2021/06/01 01:24:53;;;;;;;2.60;1.10;;;15.80;59.80;;;;;;5054879;28;20016;-75
2021/06/01 01:27:51;;;;;;;3.97;1.50;;;15.80;59.80;;;;;;5053796;28;20021;-75
2021/06/01 01:30:17;;;;;;;2.22;1.55;;;15.80;60.00;;;;;;5053218;28;20032;-75
2021/06/01 01:32:58;;;;;;;2.13;1.23;;;15.70;60.50;;;;;;5053009;28;20028;-75
2021/06/01 01:35:25;;;;;;;1.75;0.90;;;15.70;60.70;;;;;;5052314;28;20049;-75
2021/06/01 01:37:52;;;;;;;2.05;0.85;;;15.70;60.70;;;;;;5052108;28;20025;-75
2021/06/01 01:40:22;;;;;;;2.60;1.25;;;15.70;60.80;;;;;;5055288;28;20037;-75
2021/06/01 01:42:51;;;;;;;2.08;1.10;;;15.60;60.80;;;;;;5057668;28;20437;-75
2021/06/01 01:45:27;;;;;;;2.08;1.23;;;15.50;61.10;;;;;;5058912;28;20021;-75
2021/06/01 01:50:45;;;;;;;1.88;0.90;;;15.50;61.40;;;;;;5056336;28;20035;-75
2021/06/01 01:53:15;;;;;;;2.08;0.90;;;15.40;61.40;;;;;;5055799;28;20025;-75
2021/06/01 01:55:45;;;;;;;2.47;0.93;;;15.40;61.40;;;;;;5054955;28;20044;-74
2021/06/01 01:58:15;;;;;;;1.90;0.98;;;15.40;61.50;;;;;;5057406;28;20031;-75
2021/06/01 02:00:42;;;;;;;1.10;0.60;;;15.40;61.50;;;;;;5059179;28;20460;-75
2021/06/01 02:03:08;;;;;;;1.58;0.70;;;15.40;61.40;;;;;;5056720;28;20016;-75
2021/06/01 02:05:35;;;;;;;1.40;0.82;;;15.40;61.10;;;;;;5057545;28;20091;-74
2021/06/01 02:08:01;;;;;;;2.25;1.15;;;15.40;61.00;;;;;;5054468;28;20059;-75
2021/06/01 02:10:26;;;;;;;2.08;1.02;;;15.40;61.00;;;;;;5055234;28;20041;-75
2021/06/01 02:12:52;;;;;;;2.13;0.80;;;15.30;61.10;;;;;;5056589;28;20024;-75
2021/06/01 02:15:18;;;;;;;1.77;1.00;;;15.30;61.20;;;;;;5055831;28;20468;-75
2021/06/01 02:17:44;;;;;;;1.73;0.90;;;15.20;61.50;;;;;;5056903;28;20064;-75
2021/06/01 02:20:13;;;;;;;1.50;1.00;;;15.20;62.60;;;;;;5053759;28;20044;-75
2021/06/01 02:26:17;;;;;;;3.30;0.80;;;15.20;61.80;;;;;;5057144;28;20031;-75
2021/06/01 02:28:48;;;;;;;1.50;0.60;;;15.10;61.80;;;;;;5061053;28;20040;-74
2021/06/01 02:31:18;;;;;;;1.65;0.80;;;15.10;62.00;;;;;;5056742;28;20104;-75
2021/06/01 02:33:45;;;;;;;1.25;0.80;;;15.00;62.30;;;;;;5055321;28;20510;-74
2021/06/01 02:36:14;;;;;;;1.05;0.70;;;15.00;62.40;;;;;;5070368;28;20017;-75
2021/06/01 02:38:40;;;;;;;2.43;1.30;;;15.00;62.60;;;;;;5054363;28;20025;-74
2021/06/01 02:41:07;;;;;;;1.50;1.00;;;15.00;62.80;;;;;;5056617;28;20287;-74
2021/06/01 02:43:33;;;;;;;1.90;1.00;;;15.00;62.90;;;;;;5058530;28;20021;-75
2021/06/01 02:46:00;;;;;;;1.63;1.10;;;14.90;63.00;;;;;;5055842;28;20021;-75
2021/06/01 02:48:27;;;;;;;1.42;0.80;;;14.90;62.90;;;;;;5056867;28;20029;-75
2021/06/01 02:50:57;;;;;;;2.15;1.10;;;14.90;62.90;;;;;;5054414;28;20032;-74
2021/06/01 02:53:23;;;;;;;1.88;1.17;;;14.90;62.80;;;;;;5054806;28;20083;-74
2021/06/01 02:55:50;;;;;;;1.80;1.15;;;14.90;62.90;;;;;;5053772;28;20098;-75
2021/06/01 02:58:16;;;;;;;2.92;1.42;;;14.90;63.00;;;;;;5056229;28;20523;-75
2021/06/01 03:00:43;;;;;;;3.40;1.50;;;14.90;63.30;;;;;;5058203;28;20049;-75
2021/06/01 03:03:13;;;;;;;2.97;1.45;;;14.90;63.50;;;;;;5055593;28;20017;-76
2021/06/01 03:05:40;;;;;;;2.45;1.40;;;14.80;63.60;;;;;;5056456;28;20072;-76
2021/06/01 03:08:26;;;;;;;2.13;1.27;;;14.80;64.10;;;;;;5054689;28;20058;-76
2021/06/01 03:10:56;;;;;;;3.70;2.42;;;14.80;64.30;;;;;;5055433;28;20021;-76
2021/06/01 03:13:23;;;;;;;4.22;2.35;;;14.80;65.00;;;;;;5054943;28;20017;-75
2021/06/01 03:15:48;;;;;;;3.35;1.40;;;14.70;65.40;;;;;;5057053;28;20024;-76
2021/06/01 03:18:14;;;;;;;3.22;1.67;;;14.60;65.40;;;;;;5055418;28;20025;-76
2021/06/01 03:20:40;;;;;;;4.03;1.90;;;14.60;65.70;;;;;;5056703;28;20021;-76
2021/06/01 03:23:06;;;;;;;2.92;1.90;;;14.50;65.70;;;;;;5052295;28;20108;-76
2021/06/01 03:25:32;;;;;;;2.70;1.63;;;14.50;65.90;;;;;;5058639;28;20120;-76
2021/06/01 03:27:58;;;;;;;4.13;1.95;;;14.50;66.00;;;;;;5057092;28;20560;-76
2021/06/01 03:30:23;;;;;;;3.05;1.85;;;14.50;66.00;;;;;;5053651;28;20028;-76
2021/06/01 03:32:49;;;;;;;2.63;1.88;;;14.50;66.00;;;;;;5054561;28;20025;-75
2021/06/01 03:35:15;;;;;;;3.65;1.85;;;14.40;66.10;;;;;;5053763;28;20021;-76
2021/06/01 03:37:40;;;;;;;2.60;1.55;;;14.40;66.30;;;;;;5053542;28;20017;-76
2021/06/01 03:40:06;;;;;;;2.45;1.35;;;14.40;66.40;;;;;;5053165;28;20069;-76
2021/06/01 03:42:32;;;;;;;2.65;1.30;;;14.40;66.40;;;;;;5055360;28;20428;-76
2021/06/01 03:44:59;;;;;;;1.77;1.15;;;14.40;66.60;;;;;;5055657;28;20052;-76
2021/06/01 03:47:25;;;;;;;3.78;1.80;;;14.40;66.60;;;;;;5054566;28;20443;-76
2021/06/01 03:49:50;;;;;;;6.57;2.35;;;14.40;66.80;;;;;;5054413;28;20025;-76
2021/06/01 03:52:16;;;;;;;2.40;1.08;;;14.40;67.00;;;;;;5054643;28;20021;-76
2021/06/01 03:54:41;;;;;;;2.08;1.55;;;14.30;67.00;;;;;;5068711;28;20025;-76
2021/06/01 03:57:10;;;;;;;2.03;1.27;;;14.30;67.20;;;;;;5052871;28;20067;-76
2021/06/01 03:59:36;;;;;;;1.80;1.08;;;14.30;67.30;;;;;;5055150;28;20023;-76
2021/06/01 04:02:02;;;;;;;1.40;1.00;;;14.30;67.30;;;;;;5056684;28;20126;-76
2021/06/01 04:04:28;;;;;;;2.35;1.55;;;14.30;67.50;;;;;;5054095;28;20066;-76
2021/06/01 04:06:53;;;;;;;2.05;1.15;;;14.30;67.70;;;;;;5054576;28;20383;-76
2021/06/01 04:09:19;;;;;;;3.33;1.20;;;14.20;67.80;;;;;;5053731;28;20024;-81
2021/06/01 04:11:45;;;;;;;2.03;1.27;;;14.20;67.90;;;;;;5055160;28;20039;-81
2021/06/01 04:14:10;;;;;;;2.25;1.40;;;14.20;68.00;;;;;;5053917;28;20028;-81
2021/06/01 04:16:36;;;;;;;1.90;1.20;;;14.20;68.30;;;;;;5053428;28;20047;-82
2021/06/01 04:19:02;;;;;;;1.73;1.25;;;14.20;68.50;;;;;;5053367;28;20067;-81
2021/06/01 04:21:28;;;;;;;2.03;1.33;;;14.20;69.00;;;;;;5053406;28;20032;-81
2021/06/01 04:23:53;;;;;;;3.10;1.10;;;14.20;69.30;;;;;;5052462;28;20032;-81
2021/06/01 04:26:19;;;;;;;2.22;1.00;;;14.20;69.50;;;;;;5057094;28;20029;-81
2021/06/01 04:28:44;;;;;;;2.00;1.30;;;14.20;69.70;;;;;;5053134;28;20036;-82
2021/06/01 04:31:10;;;;;;;2.95;1.58;;;14.20;69.80;;;;;;5054328;28;20029;-81
2021/06/01 04:33:36;;;;;;;2.45;1.33;;;14.20;70.10;;;;;;5054433;28;20036;-81
2021/06/01 04:36:01;;;;;;;2.03;1.33;;;14.20;70.40;;;;;;5053173;28;20526;-81
2021/06/01 04:38:27;;;;;;;2.35;1.38;;;14.20;70.50;;;;;;5053251;28;20025;-82
2021/06/01 04:40:52;;;;;;;2.63;1.90;;;14.20;70.80;;;;;;5052075;28;20045;-81
2021/06/01 04:43:18;;;;;;;3.10;1.88;;;14.30;71.20;;;;;;5056978;28;20163;-81
2021/06/01 04:45:44;;;;;;;2.53;1.40;;;14.30;71.30;;;;;;5052656;28;20105;-82
2021/06/01 04:48:10;;;;;;;2.63;1.30;;;14.30;71.50;;;;;;5052730;28;20100;-81
2021/06/01 04:50:36;;;;;;;3.42;2.25;;;14.30;71.70;;;;;;5052056;28;20029;-82
2021/06/01 04:53:01;;;;;;;4.45;2.00;;;14.40;72.50;;;;;;5071986;28;20031;-81
2021/06/01 04:55:27;;;;;;;4.65;2.30;;;14.40;72.80;;;;;;5072658;28;20418;-82
2021/06/01 04:57:53;;;;;;;5.28;2.08;;;14.40;73.00;;;;;;5072754;28;20029;-82
2021/06/01 05:00:19;;;;;;;3.25;1.85;;;14.40;73.30;;;;;;5072619;28;20494;-82
2021/06/01 05:02:44;;;;;;;4.88;2.40;;;14.40;73.60;;;;;;5072679;28;20391;-81
2021/06/01 05:05:10;;;;;;;8.07;2.90;;;14.50;74.30;;;;;;5072938;28;20024;-82
2021/06/01 05:07:36;;;;;;;4.68;2.75;;;14.50;74.90;;;;;;5072076;28;20020;-80
2021/06/01 05:10:03;;;;;;;8.32;3.50;;;14.50;75.30;;;;;;5071797;28;20111;-80
2021/06/01 05:12:29;;;;;;;5.30;3.22;;;14.50;76.10;;;;;;5071766;28;20052;-81
2021/06/01 05:14:55;;;;;;;5.90;3.35;;;14.50;76.90;;;;;;5076986;28;20078;-80
2021/06/01 05:17:21;;;;;;;13.88;3.72;;;14.60;77.80;;;;;;5065426;28;20095;-80
2021/06/01 05:19:47;;;;;;;8.68;3.35;;;14.60;78.30;;;;;;5068406;28;20464;-81
2021/06/01 05:22:13;;;;;;;7.45;3.20;;;14.70;79.20;;;;;;5067563;28;20033;-80
2021/06/01 05:24:39;;;;;;;8.57;3.50;;;14.70;79.60;;;;;;5075111;28;20116;-81
2021/06/01 05:27:06;;;;;;;9.18;3.78;;;14.70;80.90;;;;;;5075111;28;20032;-81
2021/06/01 05:29:34;;;;;;;5.53;4.20;;;14.70;80.90;;;;;;5074836;28;20445;-81
2021/06/01 05:34:48;;;;;;;6.40;3.40;;;14.80;81.60;;;;;;5069627;28;20388;-80
2021/06/01 05:37:13;;;;;;;6.20;3.67;;;14.80;82.30;;;;;;5076065;28;20021;-81
2021/06/01 05:39:39;;;;;;;7.35;4.63;;;14.90;82.40;;;;;;5075258;28;20391;-82
2021/06/01 05:42:05;;;;;;;6.00;3.53;;;14.90;83.20;;;;;;5075710;28;20581;-81
2021/06/01 05:44:30;;;;;;;4.25;2.83;;;15.00;83.50;;;;;;5074692;28;20033;-80
2021/06/01 05:46:56;;;;;;;3.67;2.72;;;15.10;83.70;;;;;;5073960;28;20043;-80
2021/06/01 05:49:22;;;;;;;3.92;2.20;;;15.10;83.60;;;;;;5075253;28;20033;-81
2021/06/01 05:51:48;;;;;;;4.30;2.08;;;15.10;83.70;;;;;;5074551;28;20029;-81
2021/06/01 05:54:14;;;;;;;2.38;1.75;;;15.20;83.70;;;;;;5075565;28;20023;-80
2021/06/01 05:56:40;;;;;;;3.08;1.75;;;15.30;83.70;;;;;;5075719;28;20028;-80
2021/06/01 05:59:05;;;;;;;4.65;2.58;;;15.30;83.50;;;;;;5075694;28;20077;-80
2021/06/01 06:01:31;;;;;;;3.83;2.08;;;15.40;82.90;;;;;;5075612;28;20024;-81
2021/06/01 06:03:57;;;;;;;4.35;2.05;;;15.50;81.90;;;;;;5075432;28;20024;-81
2021/06/01 06:06:22;;;;;;;7.63;2.10;;;15.50;79.90;;;;;;5074260;28;20031;-82
2021/06/01 06:08:48;;;;;;;4.40;1.85;;;15.60;78.70;;;;;;5073898;28;20028;-82
2021/06/01 06:11:14;;;;;;;4.78;2.30;;;15.70;77.60;;;;;;5075574;28;20059;-81
2021/06/01 06:13:39;;;;;;;3.63;1.92;;;15.80;76.50;;;;;;5075354;28;20024;-81
2021/06/01 06:16:05;;;;;;;3.55;1.85;;;15.90;75.30;;;;;;5075364;28;20024;-81
2021/06/01 06:18:30;;;;;;;3.20;1.95;;;16.00;74.90;;;;;;5075272;28;20519;-81
2021/06/01 06:21:00;;;;;;;3.47;1.92;;;16.10;74.30;;;;;;5074910;28;20074;-81
2021/06/01 06:23:26;;;;;;;6.97;2.30;;;16.10;74.40;;;;;;5073994;28;20073;-81
2021/06/01 06:25:52;;;;;;;6.22;2.47;;;16.20;74.90;;;;;;5073353;28;20071;-81
2021/06/01 06:28:17;;;;;;;4.40;2.20;;;16.20;74.70;;;;;;5073529;28;20478;-81
2021/06/01 06:30:43;;;;;;;6.05;2.70;;;16.30;74.10;;;;;;5074650;28;20542;-81
2021/06/01 06:33:08;;;;;;;3.75;2.17;;;16.30;73.50;;;;;;5074514;28;20502;-82
2021/06/01 06:35:34;;;;;;;4.00;2.72;;;16.40;73.20;;;;;;5074528;28;20016;-81
2021/06/01 06:37:59;;;;;;;5.97;2.00;;;16.50;72.70;;;;;;5074485;28;20036;-81
2021/06/01 06:40:25;;;;;;;8.20;2.28;;;16.60;72.00;;;;;;5073150;28;20059;-80
2021/06/01 06:42:50;;;;;;;4.43;2.03;;;16.70;70.10;;;;;;5074480;28;20039;-80
2021/06/01 06:45:17;;;;;;;4.25;2.38;;;16.70;70.20;;;;;;5074477;28;20023;-80
2021/06/01 06:47:55;;;;;;;;;;;;;;;;;;;;;
2021/06/01 06:50:10;;;;;;;4.18;2.03;;;16.90;70.50;;;;;;5074407;28;20380;-81
2021/06/01 06:52:36;;;;;;;4.05;1.67;;;16.90;70.60;;;;;;5073367;28;20040;-81
2021/06/01 06:55:04;;;;;;;3.67;1.60;;;16.90;70.80;;;;;;5072402;28;20376;-81
2021/06/01 06:57:30;;;;;;;3.85;1.88;;;17.00;70.80;;;;;;5071927;28;20031;-81
2021/06/01 06:59:55;;;;;;;6.18;2.42;;;17.10;70.00;;;;;;5074542;28;20103;-81
2021/06/01 07:02:24;;;;;;;4.50;2.38;;;17.10;68.00;;;;;;5074019;28;20020;-81
2021/06/01 07:04:49;;;;;;;3.78;2.17;;;17.20;70.10;;;;;;5074330;28;20399;-80
2021/06/01 07:07:15;;;;;;;2.80;1.65;;;17.30;69.90;;;;;;5074374;28;20040;-81
2021/06/01 07:09:40;;;;;;;4.05;1.90;;;17.40;70.00;;;;;;5072497;28;20043;-81
2021/06/01 07:12:07;;;;;;;3.42;2.13;;;17.40;70.40;;;;;;5073200;28;20028;-81
2021/06/01 07:14:45;;;;;;;4.30;2.10;;;17.50;70.10;;;;;;5074072;28;20029;-81
2021/06/01 07:17:10;;;;;;;4.25;1.73;;;17.60;70.60;;;;;;5072355;28;20172;-81
2021/06/01 07:19:36;;;;;;;4.10;1.90;;;17.60;69.10;;;;;;5073649;28;20488;-80
2021/06/01 07:22:02;;;;;;;3.35;1.55;;;17.70;70.00;;;;;;5073639;28;20020;-81
2021/06/01 07:24:28;;;;;;;4.55;1.67;;;17.80;69.70;;;;;;5073506;28;20020;-81
2021/06/01 07:26:53;;;;;;;2.78;1.88;;;17.80;69.20;;;;;;5072214;28;20075;-81
2021/06/01 07:29:19;;;;;;;2.47;1.60;;;17.90;67.90;;;;;;5073413;28;20080;-81
2021/06/01 07:31:45;;;;;;;4.63;1.88;;;18.00;68.80;;;;;;5073439;28;20020;-81
2021/06/01 07:34:10;;;;;;;3.70;1.45;;;18.10;69.20;;;;;;5073238;28;20491;-80
2021/06/01 07:36:36;;;;;;;3.40;1.63;;;18.10;69.20;;;;;;5073300;28;20099;-81
2021/06/01 07:39:03;;;;;;;4.95;2.05;;;18.20;69.10;;;;;;5071347;28;20032;-81
2021/06/01 07:41:28;;;;;;;4.55;1.67;;;18.30;69.70;;;;;;5071952;28;20518;-81
2021/06/01 07:43:55;;;;;;;3.78;2.22;;;18.30;69.60;;;;;;5073240;28;20056;-81
2021/06/01 07:46:20;;;;;;;3.60;1.77;;;18.40;69.20;;;;;;5071758;28;20744;-81
2021/06/01 07:48:46;;;;;;;4.20;1.85;;;18.60;68.90;;;;;;5072945;28;20070;-81
2021/06/01 07:51:11;;;;;;;3.05;2.03;;;18.60;69.30;;;;;;5071797;28;20024;-81
2021/06/01 07:53:38;;;;;;;4.15;2.15;;;18.80;69.50;;;;;;5071878;28;20100;-81
2021/06/01 07:56:07;;;;;;;3.28;1.30;;;18.90;68.90;;;;;;5072894;28;20035;-81
2021/06/01 07:58:33;;;;;;;2.60;1.60;;;18.90;68.70;;;;;;5072812;28;20085;-81
2021/06/01 08:00:58;;;;;;;4.05;2.00;;;19.00;68.50;;;;;;5071044;28;20747;-81
2021/06/01 08:03:24;;;;;;;5.15;1.75;;;19.10;68.40;;;;;;5072947;28;20402;-81
2021/06/01 08:05:51;;;;;;;2.83;1.85;;;19.20;69.10;;;;;;5072677;28;20056;-81
2021/06/01 08:08:17;;;;;;;4.78;2.22;;;19.30;69.10;;;;;;5072848;28;20103;-81
2021/06/01 08:10:42;;;;;;;2.90;1.80;;;19.40;69.30;;;;;;5071421;28;20108;-81
2021/06/01 08:13:08;;;;;;;3.50;2.20;;;19.50;66.00;;;;;;5072855;28;20029;-81
2021/06/01 08:15:33;;;;;;;3.17;1.90;;;19.50;66.40;;;;;;5071870;28;20085;-81
2021/06/01 08:18:02;;;;;;;5.07;2.10;;;19.60;66.40;;;;;;5071926;28;20020;-81
2021/06/01 08:20:40;;;;;;;5.20;2.03;;;19.70;66.80;;;;;;5071748;28;20103;-81
2021/06/01 08:23:06;;;;;;;4.30;2.30;;;19.80;67.50;;;;;;5073263;28;20017;-81
2021/06/01 08:25:32;;;;;;;5.43;2.28;;;19.80;69.90;;;;;;5068960;28;20445;-87
2021/06/01 08:27:57;;;;;;;5.13;2.20;;;19.90;70.40;;;;;;5069594;28;20074;-82
2021/06/01 08:30:24;;;;;;;3.53;2.35;;;20.00;69.00;;;;;;5073063;28;20099;-81
2021/06/01 08:32:49;;;;;;;4.65;2.60;;;20.10;66.50;;;;;;5072660;28;20102;-81
2021/06/01 08:35:15;;;;;;;3.00;2.30;;;20.20;63.80;;;;;;5071911;28;20476;-81
2021/06/01 08:37:41;;;;;;;5.07;1.98;;;20.20;66.40;;;;;;5070758;28;20123;-81
2021/06/01 08:40:07;;;;;;;2.88;1.60;;;20.30;65.10;;;;;;5071893;28;20044;-82
2021/06/01 08:42:38;;;;;;;2.90;2.10;;;20.30;64.00;;;;;;5072244;28;20391;-81
2021/06/01 08:45:06;;;;;;;4.75;1.30;;;20.50;64.70;;;;;;5071948;28;20027;-81
2021/06/01 08:47:32;;;;;;;2.42;1.60;;;20.50;60.50;;;;;;5072071;28;20055;-82
2021/06/01 08:50:01;;;;;;;2.58;1.63;;;20.70;59.50;;;;;;5074515;28;20025;-82
2021/06/01 08:52:26;;;;;;;4.90;1.88;;;20.70;57.80;;;;;;5074796;28;20431;-83
2021/06/01 08:54:54;;;;;;;1.75;1.50;;;20.80;58.00;;;;;;5069192;28;20045;-84
2021/06/01 08:57:20;;;;;;;2.65;1.17;;;20.90;58.20;;;;;;5072536;28;20035;-84
2021/06/01 08:59:46;;;;;;;2.35;1.45;;;21.00;57.50;;;;;;5075394;28;20384;-84
2021/06/01 09:02:11;;;;;;;3.67;1.67;;;21.10;58.40;;;;;;5077146;28;20036;-84
2021/06/01 09:04:54;;;;;;;2.40;1.38;;;21.20;60.10;;;;;;5090572;28;20052;-84
2021/06/01 09:07:31;;;;;;;2.95;1.70;;;21.30;59.80;;;;;;5050234;28;20029;-84
2021/06/01 09:21:39;;;;;;;2.55;1.98;;;21.50;55.30;;;;;;5075541;28;20085;-84
2021/06/01 09:24:06;;;;;;;3.03;1.50;;;21.60;56.00;;;;;;5077600;28;20016;-84
2021/06/01 09:27:16;;;;;;;2.80;1.73;;;21.70;52.30;;;;;;5095172;28;20021;-84
2021/06/01 09:29:34;;;;;;;4.20;1.67;;;21.80;52.90;;;;;;5094402;28;20432;-84
2021/06/01 09:32:08;;;;;;;4.30;1.35;;;21.80;51.00;;;;;;5095549;28;20016;-83
2021/06/01 09:34:41;;;;;;;2.63;1.65;;;21.90;54.30;;;;;;5095710;28;20040;-84
2021/06/01 09:37:27;;;;;;;2.45;1.30;;;22.00;52.30;;;;;;5095196;28;20487;-84
2021/06/01 09:40:19;;;;;;;2.30;1.58;;;22.20;51.40;;;;;;5092745;28;20052;-84
2021/06/01 09:42:47;;;;;;;3.95;1.55;;;22.30;52.90;;;;;;5094239;28;20024;-84
2021/06/01 09:45:21;;;;;;;2.58;1.48;;;22.30;51.90;;;;;;5093977;28;20024;-84
2021/06/01 09:47:56;;;;;;;3.83;1.15;;;22.40;51.10;;;;;;5094226;28;20462;-83
2021/06/01 09:50:30;;;;;;;3.85;1.55;;;22.40;49.00;;;;;;5094730;28;20020;-84
2021/06/01 09:53:00;;;;;;;2.83;1.63;;;22.50;51.00;;;;;;5071300;28;20476;-83
2021/06/01 09:55:35;;;;;;;3.47;1.60;;;22.60;50.20;;;;;;5074921;28;20058;-83
2021/06/01 09:58:06;;;;;;;1.60;1.10;;;22.60;49.30;;;;;;5082614;28;20515;-83
2021/06/01 10:00:34;;;;;;;2.58;1.40;;;22.80;50.20;;;;;;5088210;28;20082;-83
2021/06/01 10:03:05;;;;;;;2.25;1.27;;;23.20;48.80;;;;;;5084686;28;20551;-84
2021/06/01 10:05:32;;;;;;;2.03;1.50;;;25.10;47.80;;;;;;5095576;28;20067;-84
2021/06/01 10:08:08;;;;;;;2.63;1.55;;;27.90;45.30;;;;;;5091607;28;20416;-84
2021/06/01 10:10:33;;;;;;;1.50;1.13;;;30.00;41.60;;;;;;5073157;28;20028;-84
2021/06/01 10:13:05;;;;;;;1.58;1.25;;;31.70;38.20;;;;;;5084647;28;20024;-84
2021/06/01 10:15:32;;;;;;;1.58;1.20;;;33.30;36.10;;;;;;5080857;28;20031;-84
2021/06/01 10:17:58;;;;;;;1.70;1.30;;;34.50;34.20;;;;;;5074963;28;20074;-82
2021/06/01 10:20:26;;;;;;;1.40;1.02;;;35.70;33.20;;;;;;5078791;28;20055;-87
2021/06/01 10:22:52;;;;;;;1.40;1.10;;;37.20;33.40;;;;;;5076716;28;20094;-87
2021/06/01 10:25:19;;;;;;;2.42;1.38;;;38.10;32.60;;;;;;5073742;28;20056;-89
2021/06/01 10:27:46;;;;;;;1.92;1.38;;;38.50;30.20;;;;;;5077263;28;20028;-88
2021/06/01 10:30:14;;;;;;;2.63;1.20;;;38.20;30.50;;;;;;5076274;28;20112;-82
2021/06/01 10:32:54;;;;;;;1.70;1.05;;;37.70;31.00;;;;;;5084869;28;20071;-85
2021/06/01 10:35:22;;;;;;;2.42;1.20;;;37.60;29.70;;;;;;5074936;28;20490;-85
2021/06/01 10:49:56;;;;;;;1.98;1.52;;;39.90;28.30;;;;;;5074302;28;20031;-85
2021/06/01 10:52:04;;;;;;;2.00;1.60;;;40.00;28.50;;;;;;5090097;28;20034;-85
2021/06/01 10:54:39;;;;;;;2.00;1.25;;;40.10;28.70;;;;;;5079649;28;20024;-83
2021/06/01 10:57:05;;;;;;;3.03;1.50;;;40.60;28.30;;;;;;5083785;28;20108;-84
2021/06/01 11:02:16;;;;;;;4.25;1.60;;;42.40;27.80;;;;;;5060679;28;20034;-84
2021/06/01 11:05:11;;;;;;;2.58;1.88;;;42.80;28.40;;;;;;5082591;28;20020;-83
2021/06/01 11:07:55;;;;;;;2.97;1.63;;;43.40;27.60;;;;;;5072160;28;20093;-83
2021/06/01 11:10:42;;;;;;;1.63;1.33;;;43.80;27.00;;;;;;5073636;28;20387;-82
2021/06/01 11:13:28;;;;;;;2.40;1.40;;;44.00;26.60;;;;;;5071833;28;20059;-84
2021/06/01 11:15:55;;;;;;;2.88;1.20;;;43.70;26.60;;;;;;5066277;28;20154;-84
2021/06/01 11:18:34;;;;;;;3.77;1.30;;;43.40;26.70;;;;;;5072009;28;20024;-83
2021/06/01 11:33:11;;;;;;;2.65;1.50;;;44.70;25.70;;;;;;5075168;28;20027;-83
2021/06/01 11:35:53;;;;;;;1.80;1.45;;;44.50;25.50;;;;;;5073176;28;20368;-83
2021/06/01 11:38:28;;;;;;;1.50;1.40;;;44.50;25.60;;;;;;5071215;28;20115;-83
2021/06/01 11:41:19;;;;;;;1.48;1.20;;;44.20;26.10;;;;;;5070826;28;20036;-83
2021/06/01 11:43:45;;;;;;;3.15;1.70;;;44.20;25.60;;;;;;5071056;28;20017;-83
2021/06/01 11:46:29;;;;;;;2.97;1.60;;;44.10;25.30;;;;;;5073310;28;20023;-83
2021/06/01 11:51:44;;;;;;;7.75;1.40;;;44.30;25.00;;;;;;5069638;28;20106;-83
2021/06/01 11:54:15;;;;;;;2.05;1.48;;;43.90;25.30;;;;;;5067614;28;20024;-83
2021/06/01 11:57:02;;;;;;;2.10;1.08;;;43.80;25.80;;;;;;5068881;28;20020;-82
2021/06/01 12:05:00;;;;;;;3.03;1.48;;;43.60;25.10;;;;;;5069278;28;20025;-83
2021/06/01 12:18:46;;;;;;;;;;;42.00;26.30;;;;;;5069973;28;20094;-82
2021/06/01 12:21:18;;;;;;;4.03;2.20;;;41.90;26.20;;;;;;5068827;28;19911;-82
2021/06/01 12:23:58;;;;;;;1.60;1.33;;;42.20;26.30;;;;;;5065848;28;20123;-82
2021/06/01 12:32:12;;;;;;;2.22;1.83;;;42.00;26.20;;;;;;5068284;28;20561;-84
2021/06/01 12:45:57;;;;;;;2.65;1.48;;;42.60;25.30;;;;;;5063015;28;20432;-87
2021/06/01 13:20:41;;;;;;;1.20;1.10;;;41.90;25.50;;;;;;5037546;28;20036;-83
2021/06/01 13:37:35;;;;;;;1.60;1.42;;;39.30;26.00;;;;;;5054227;28;20023;-80
2021/06/01 13:40:19;;;;;;;3.97;1.80;;;38.80;26.30;;;;;;5053091;28;20029;-80
2021/06/01 13:48:43;;;;;;;1.30;1.10;;;35.90;28.40;;;;;;5054228;28;20444;-82
2021/06/01 13:56:21;;;;;;;2.22;1.80;;;34.50;28.40;;;;;;5054153;28;20021;-82
2021/06/01 13:59:06;;;;;;;1.92;1.40;;;33.80;29.70;;;;;;5052037;28;20534;-83
2021/06/01 14:10:20;;;;;;;1.90;1.38;;;32.30;31.50;;;;;;5053906;28;20118;-81
2021/06/01 14:29:42;;;;;;;1.65;1.48;;;31.40;33.00;;;;;;5051874;28;20040;-80
2021/06/01 15:29:20;;;;;;;3.47;1.48;;;28.50;37.00;;;;;;5033062;28;20033;-83
2021/06/01 15:31:53;;;;;;;3.67;1.30;;;28.60;37.40;;;;;;5038588;28;20167;-83
2021/06/01 15:48:17;;;;;;;;;;;;;;;;;;;;;
2021/06/01 15:50:38;;;;;;;2.13;1.50;;;28.00;38.10;;;;;;5052075;28;20021;-83
2021/06/01 16:15:35;;;;;;;1.73;1.10;;;27.60;38.20;;;;;;5051742;28;20029;-81
2021/06/01 16:23:40;;;;;;;3.67;1.55;;;27.50;38.80;;;;;;5055716;28;20071;-81
2021/06/01 16:29:44;;;;;;;2.25;1.38;;;27.40;37.50;;;;;;5055480;28;20116;-81
2021/06/01 16:31:48;;;;;;;3.80;1.00;;;27.40;37.80;;;;;;5049290;28;20043;-81
2021/06/01 17:07:36;;;;;;;3.17;0.90;;;27.10;39.30;;;;;;5055671;28;20025;-83
2021/06/01 17:12:49;;;;;;;2.30;1.25;;;27.10;38.40;;;;;;5055429;28;20083;-85
2021/06/01 17:15:17;;;;;;;2.38;1.20;;;27.10;38.60;;;;;;5055071;28;20033;-84
2021/06/01 17:17:56;;;;;;;2.35;1.08;;;27.00;39.00;;;;;;5053397;28;20021;-83
2021/06/01 17:30:59;;;;;;;1.75;1.00;;;26.80;39.80;;;;;;5051959;28;20024;-85
2021/06/01 17:36:12;;;;;;;1.92;1.10;;;26.70;38.80;;;;;;5051856;28;20033;-84
2021/06/01 17:38:37;;;;;;;2.58;1.20;;;26.60;39.90;;;;;;5054533;28;20029;-83
2021/06/01 17:41:08;;;;;;;3.15;1.30;;;26.60;39.80;;;;;;5054513;28;20025;-85
2021/06/01 17:43:35;;;;;;;1.45;1.02;;;26.60;39.90;;;;;;5054341;28;20400;-85
2021/06/01 17:46:05;;;;;;;2.22;1.38;;;26.50;39.20;;;;;;5054288;28;20025;-84
2021/06/01 17:48:36;;;;;;;4.65;1.23;;;26.50;39.10;;;;;;5054386;28;20060;-85
2021/06/01 17:51:07;;;;;;;1.90;1.02;;;26.40;40.00;;;;;;5052100;28;20013;-84
2021/06/01 17:53:47;;;;;;;1.40;1.00;;;26.30;40.00;;;;;;5053253;28;20476;-84
2021/06/01 17:56:22;;;;;;;2.97;1.27;;;26.30;39.60;;;;;;5054148;28;20096;-84
2021/06/01 17:58:48;;;;;;;3.10;1.42;;;26.30;39.90;;;;;;5053935;28;20025;-84
2021/06/01 18:01:16;;;;;;;2.97;1.17;;;26.20;39.80;;;;;;5052823;28;20025;-82
2021/06/01 18:03:47;;;;;;;2.00;1.70;;;26.10;39.90;;;;;;5052135;28;20017;-82
2021/06/01 18:06:13;;;;;;;1.73;1.10;;;26.00;39.30;;;;;;5033596;28;20033;-82
2021/06/01 18:11:44;;;;;;;1.80;1.10;;;26.00;40.10;;;;;;5033408;28;20014;-82
2021/06/01 19:25:05;;;;;;;2.53;1.38;;;24.20;41.40;;;;;;5034432;28;20602;-81
2021/06/01 19:50:18;;;;;;;1.35;0.90;;;23.50;42.40;;;;;;5046040;28;20032;-81
2021/06/01 19:52:48;;;;;;;1.60;0.93;;;23.50;42.60;;;;;;5037141;28;20025;-81
2021/06/01 19:55:16;;;;;;;1.20;0.90;;;23.40;42.70;;;;;;5036255;28;20028;-81